»·PEaware :: N276ND KYKM-KSEA

N276ND :: KYKM-KSEA

FLIGHT INFORMATION

Flight Status: Arrived
Operator: Privately registered:
United States
More flights under this callsign
Pilot: Giorgi S. (28323)
Aircraft: CESSNA 172 SKYHAWK
(C172)
More flights by this aircraft type
Origin: KYKM Yakima Air Term/Mcallister
United States
Destination: KSEA Seattle-Tacoma Intl
United States
More flights between these airports :: More routes between these airports
Route: +NACHES4 YKM V4 SEA
File this flight plan on PilotEdge
Remarks:
Altitude:
(Current/Filed)
9,000ft
Speed:
(Current/Filed)
120kts
Departed: 22-Apr-20 02:33 PM
Arrived: 22-Apr-20 03:56 PM
Distance/Time
Traveled:
89nm/1:22
Distance/Time
To Go:
Arrived

Flight Plot

Page will automatically refresh every two minutes.


Map Options




Map Legend


Flown Route
Filed Route
Departure Airport
Arrival Airport
Navaid (VOR, NDB)
Fix

Horizontal Profiles

Position Reports

Time Latitude Longitude Heading Altitude Ground
Speed
22-Apr-20 14:06 46.572804 -120.552864 288 1086ft 0kts
22-Apr-20 14:07 46.572804 -120.552864 288 1086ft 0kts
22-Apr-20 14:08 46.572804 -120.552864 288 1086ft 0kts
22-Apr-20 14:09 46.572804 -120.552864 288 1086ft 0kts
22-Apr-20 14:10 46.572804 -120.552864 288 1086ft 0kts
22-Apr-20 14:11 46.572804 -120.552864 288 1086ft 0kts
22-Apr-20 14:12 46.572804 -120.552864 288 1086ft 0kts
22-Apr-20 14:13 46.572804 -120.552864 288 1086ft 0kts
22-Apr-20 14:14 46.572804 -120.552864 288 1086ft 0kts
22-Apr-20 14:15 46.572804 -120.552864 288 1086ft 0kts
22-Apr-20 14:16 46.572804 -120.552864 288 1086ft 0kts
22-Apr-20 14:17 46.572804 -120.552864 288 1086ft 0kts
22-Apr-20 14:18 46.572804 -120.552864 288 1086ft 0kts
22-Apr-20 14:19 46.572804 -120.552864 288 1086ft 0kts
22-Apr-20 14:20 46.572804 -120.552864 288 1086ft 0kts
22-Apr-20 14:21 46.572804 -120.552864 288 1086ft 0kts
22-Apr-20 14:21 46.572804 -120.552864 288 1086ft 0kts
22-Apr-20 14:23 46.572804 -120.552864 288 1086ft 0kts
22-Apr-20 14:23 46.572804 -120.552864 288 1086ft 0kts
22-Apr-20 14:24 46.572804 -120.552864 288 1086ft 0kts
22-Apr-20 14:25 46.572804 -120.552864 288 1086ft 0kts
22-Apr-20 14:26 46.572804 -120.552864 288 1086ft 0kts
22-Apr-20 14:27 46.572804 -120.552864 288 1086ft 0kts
22-Apr-20 14:28 46.571623 -120.551214 109 1082ft 23kts
22-Apr-20 14:29 46.568592 -120.538976 111 1061ft 38kts
22-Apr-20 14:30 46.566527 -120.531485 173 1047ft 0kts
22-Apr-20 14:31 46.565727 -120.531596 214 1047ft 30kts
22-Apr-20 14:32 46.571298 -120.551741 295 1576ft 75kts
22-Apr-20 14:33 46.587916 -120.563459 335 2509ft 77kts
22-Apr-20 14:34 46.608868 -120.579060 330 3347ft 87kts
22-Apr-20 14:35 46.629642 -120.595009 2 4189ft 87kts
22-Apr-20 14:36 46.628058 -120.560340 99 4934ft 104kts
22-Apr-20 14:37 46.619348 -120.520325 101 5668ft 106kts
22-Apr-20 14:38 46.607715 -120.479186 117 6288ft 115kts
22-Apr-20 14:39 46.596258 -120.435862 105 6888ft 116kts
22-Apr-20 14:40 46.577389 -120.413706 250 7350ft 99kts
22-Apr-20 14:41 46.566552 -120.447841 275 8088ft 63kts
22-Apr-20 14:42 46.576046 -120.472779 311 8470ft 80kts
22-Apr-20 14:43 46.590151 -120.497477 303 8956ft 79kts
22-Apr-20 14:44 46.602927 -120.523347 301 9386ft 78kts
22-Apr-20 14:45 46.615425 -120.549244 301 9726ft 78kts
22-Apr-20 14:46 46.627915 -120.575232 300 10005ft 80kts
22-Apr-20 14:47 46.642177 -120.604932 300 10020ft 94kts
22-Apr-20 14:48 46.657179 -120.636384 300 10019ft 95kts
22-Apr-20 14:49 46.672342 -120.668067 300 10019ft 94kts
22-Apr-20 14:50 46.687193 -120.699101 300 10018ft 92kts
22-Apr-20 14:51 46.701604 -120.729281 300 10018ft 90kts
22-Apr-20 14:52 46.715949 -120.759338 300 10018ft 91kts
22-Apr-20 14:53 46.730518 -120.789866 300 10018ft 91kts
22-Apr-20 14:54 46.745159 -120.820564 299 10017ft 92kts
22-Apr-20 14:55 46.759802 -120.851330 298 10016ft 93kts
22-Apr-20 14:56 46.774708 -120.882701 298 10015ft 95kts
22-Apr-20 14:57 46.789869 -120.914618 297 10016ft 96kts
22-Apr-20 14:58 46.805332 -120.947236 297 10022ft 99kts
22-Apr-20 14:59 46.821127 -120.980568 296 10022ft 101kts
22-Apr-20 15:00 46.837272 -121.014653 295 10021ft 102kts
22-Apr-20 15:01 46.853275 -121.048497 294 10020ft 101kts
22-Apr-20 15:02 46.869296 -121.082487 299 10014ft 102kts
22-Apr-20 15:03 46.885234 -121.116482 299 9980ft 99kts
22-Apr-20 15:04 46.900781 -121.149577 298 9980ft 99kts
22-Apr-20 15:05 46.916459 -121.182978 298 9980ft 99kts
22-Apr-20 15:06 46.932203 -121.216399 298 9982ft 99kts
22-Apr-20 15:07 46.947941 -121.250009 297 9988ft 101kts
22-Apr-20 15:08 46.963913 -121.284093 297 9995ft 102kts
22-Apr-20 15:09 46.980090 -121.318670 297 10001ft 103kts
22-Apr-20 15:10 46.996425 -121.353643 297 10008ft 105kts
22-Apr-20 15:11 47.013071 -121.389314 297 10015ft 106kts
22-Apr-20 15:12 47.029822 -121.425236 297 10022ft 108kts
22-Apr-20 15:13 47.046881 -121.461904 297 10026ft 109kts
22-Apr-20 15:14 47.064068 -121.498880 297 10025ft 109kts
22-Apr-20 15:15 47.080275 -121.536551 294 10025ft 108kts
22-Apr-20 15:16 47.094866 -121.575273 291 10025ft 108kts
22-Apr-20 15:17 47.106572 -121.614912 278 10024ft 105kts
22-Apr-20 15:18 47.128243 -121.646969 305 10024ft 111kts
22-Apr-20 15:19 47.147637 -121.681994 299 10028ft 110kts
22-Apr-20 15:20 47.165346 -121.718574 297 10028ft 110kts
22-Apr-20 15:21 47.182808 -121.755678 297 10030ft 110kts
22-Apr-20 15:22 47.200001 -121.792925 297 10034ft 109kts
22-Apr-20 15:23 47.216930 -121.829690 297 9772ft 107kts
22-Apr-20 15:24 47.233833 -121.866472 298 9204ft 108kts
22-Apr-20 15:25 47.250583 -121.903011 300 8608ft 108kts
22-Apr-20 15:26 47.267361 -121.939676 300 8045ft 105kts
22-Apr-20 15:27 47.284321 -121.976954 300 8028ft 113kts
22-Apr-20 15:28 47.302016 -122.015762 300 8027ft 114kts
22-Apr-20 15:29 47.320198 -122.054111 304 7918ft 113kts
22-Apr-20 15:30 47.338382 -122.088568 305 7314ft 106kts
22-Apr-20 15:31 47.356345 -122.123864 305 6713ft 106kts
22-Apr-20 15:32 47.373614 -122.158887 305 6111ft 105kts
22-Apr-20 15:33 47.391396 -122.196491 305 6026ft 115kts
22-Apr-20 15:34 47.408853 -122.235277 305 6025ft 112kts
22-Apr-20 15:35 47.425788 -122.274954 299 6017ft 118kts
22-Apr-20 15:36 47.448641 -122.318243 305 6006ft 140kts
22-Apr-20 15:37 47.473568 -122.363029 305 6006ft 139kts
22-Apr-20 15:38 47.498191 -122.405582 305 6006ft 133kts
22-Apr-20 15:39 47.524187 -122.443563 343 6002ft 137kts
22-Apr-20 15:40 47.562150 -122.446963 355 5483ft 134kts
22-Apr-20 15:41 47.599134 -122.449887 355 4882ft 132kts
22-Apr-20 15:42 47.635565 -122.453240 355 4286ft 131kts
22-Apr-20 15:43 47.671958 -122.456521 7 3685ft 130kts
22-Apr-20 15:44 47.680247 -122.417618 105 3077ft 110kts
22-Apr-20 15:45 47.674115 -122.371093 105 3009ft 115kts
22-Apr-20 15:46 47.660756 -122.331748 145 3009ft 111kts
22-Apr-20 15:47 47.632896 -122.313999 185 2976ft 117kts
22-Apr-20 15:48 47.601920 -122.316075 162 3000ft 107kts
22-Apr-20 15:49 47.573753 -122.317559 179 2505ft 93kts
22-Apr-20 15:50 47.547641 -122.318006 177 2014ft 92kts
22-Apr-20 15:51 47.523264 -122.317502 179 1580ft 89kts
22-Apr-20 15:52 47.499141 -122.317894 177 1076ft 79kts
22-Apr-20 15:53 47.477454 -122.317817 176 666ft 71kts
22-Apr-20 15:54 47.459789 -122.317851 181 329ft 41kts
22-Apr-20 15:55 47.459470 -122.316332 41 353ft 0kts
22-Apr-20 15:56 47.459624 -122.316103 51 357ft 7kts
22-Apr-20 15:58 47.457616 -122.313407 180 398ft 26kts
22-Apr-20 15:59 47.449759 -122.313370 179 400ft 25kts
22-Apr-20 16:00 47.444386 -122.313428 188 372ft 18kts
22-Apr-20 16:01 47.439216 -122.313609 182 355ft 12kts
22-Apr-20 16:02 47.438987 -122.313620 182 354ft 0kts
22-Apr-20 16:03 47.438199 -122.315242 358 347ft 0kts

Navigation Log

Ident Type
Flight plan parsing failed, navigation log unavailable